createdAt,value
2023-03-14T00:00:24.380Z,93493.13
2023-03-14T00:02:50.805Z,93488.59
2023-03-14T00:05:17.241Z,93479.72
2023-03-14T00:07:43.673Z,93477.47
2023-03-14T00:10:10.059Z,93470.03
2023-03-14T00:12:36.472Z,93465.50
2023-03-14T00:15:02.921Z,93465.97
2023-03-14T00:17:29.364Z,93468.78
2023-03-14T00:19:55.772Z,93461.91
2023-03-14T00:22:22.218Z,93474.16
2023-03-14T00:24:48.671Z,93472.25
2023-03-14T00:27:15.112Z,93482.22
2023-03-14T00:29:41.578Z,93505.88
2023-03-14T00:32:08.117Z,93517.34
2023-03-14T00:34:34.552Z,93517.63
2023-03-14T00:37:01.630Z,93516.53
2023-03-14T00:39:28.236Z,93520.09
2023-03-14T00:41:54.902Z,93506.13
2023-03-14T00:44:22.408Z,93499.84
2023-03-14T00:46:48.977Z,93497.06
2023-03-14T00:49:15.405Z,93493.78
2023-03-14T00:51:41.887Z,93486.00
2023-03-14T00:54:08.799Z,93489.34
2023-03-14T00:56:35.240Z,93510.03
2023-03-14T00:59:01.967Z,93501.38
2023-03-14T01:01:28.477Z,93499.56
2023-03-14T01:03:55.134Z,93507.16
2023-03-14T01:06:22.738Z,93488.16
2023-03-14T01:08:49.314Z,93498.38
2023-03-14T01:11:15.903Z,93500.13
2023-03-14T01:13:42.339Z,93497.94
2023-03-14T01:16:08.847Z,93484.97
2023-03-14T01:18:35.708Z,93483.81
2023-03-14T01:21:03.280Z,93484.16
2023-03-14T01:23:29.902Z,93475.03
2023-03-14T01:25:58.498Z,93461.84
2023-03-14T01:28:25.076Z,93475.03
2023-03-14T01:30:51.654Z,93467.97
2023-03-14T01:33:18.233Z,93470.25
2023-03-14T01:51:07.525Z,93424.25
2023-03-14T01:53:34.384Z,93413.03
2023-03-14T01:56:01.028Z,93415.66
2023-03-14T01:58:27.615Z,93404.88
2023-03-14T02:00:54.207Z,93413.13
2023-03-14T02:03:20.837Z,93406.88
2023-03-14T02:05:48.379Z,93398.09
2023-03-14T02:08:14.955Z,93395.56
2023-03-14T02:10:41.561Z,93382.88
2023-03-14T02:13:07.988Z,93382.31
2023-03-14T02:15:35.757Z,93377.16
2023-03-14T02:18:02.197Z,93367.38
2023-03-14T02:20:28.689Z,93368.19
2023-03-14T02:22:55.073Z,93354.50
2023-03-14T02:25:21.499Z,93358.88
2023-03-14T02:27:47.914Z,93350.06
2023-03-14T02:30:14.364Z,93351.44
2023-03-14T02:32:40.837Z,93349.81
2023-03-14T02:35:07.268Z,93336.50
2023-03-14T02:37:33.674Z,93335.81
2023-03-14T02:40:00.048Z,93321.47
2023-03-14T02:42:26.452Z,93327.53
2023-03-14T02:44:52.866Z,93338.84
2023-03-14T02:47:19.280Z,93334.78
2023-03-14T02:49:45.666Z,93331.53
2023-03-14T02:52:12.091Z,93329.91
2023-03-14T02:54:38.535Z,93339.41
2023-03-14T02:57:04.908Z,93333.16
2023-03-14T02:59:31.321Z,93329.44
2023-03-14T03:01:57.740Z,93325.56
2023-03-14T03:04:24.163Z,93313.22
2023-03-14T03:06:50.541Z,93315.22
2023-03-14T03:09:16.927Z,93301.91
2023-03-14T03:11:43.342Z,93297.19
2023-03-14T03:14:09.745Z,93294.56
2023-03-14T03:16:36.184Z,93283.31
2023-03-14T03:19:02.639Z,93292.84
2023-03-14T03:21:29.157Z,93279.69
2023-03-14T03:23:55.556Z,93287.88
2023-03-14T03:26:21.955Z,93282.47
2023-03-14T03:28:48.361Z,93275.75
2023-03-14T03:31:14.830Z,93264.44
2023-03-14T03:33:41.251Z,93272.47
2023-03-14T03:36:07.661Z,93261.94
2023-03-14T03:38:34.132Z,93277.31
2023-03-14T03:41:00.559Z,93270.31
2023-03-14T03:43:26.980Z,93268.50
2023-03-14T03:45:53.417Z,93271.38
2023-03-14T03:48:19.824Z,93267.13
2023-03-14T03:50:46.196Z,93263.59
2023-03-14T03:53:15.575Z,93249.50
2023-03-14T03:55:42.095Z,93250.47
2023-03-14T03:58:08.470Z,93256.94
2023-03-14T04:00:34.877Z,93260.38
2023-03-14T04:03:01.282Z,93257.63
2023-03-14T04:05:27.810Z,93250.97
2023-03-14T04:07:54.214Z,93241.69
2023-03-14T04:10:20.622Z,93235.88
2023-03-14T04:12:47.016Z,93237.34
2023-03-14T04:15:13.432Z,93232.56
2023-03-14T04:17:39.836Z,93222.41
2023-03-14T04:20:06.210Z,93209.84
2023-03-14T04:22:32.669Z,93208.41
2023-03-14T04:24:59.222Z,93195.91
2023-03-14T04:27:25.634Z,93195.28
2023-03-14T04:29:52.042Z,93193.09
2023-03-14T04:32:18.560Z,93179.28
2023-03-14T04:34:44.998Z,93179.06
2023-03-14T04:37:11.374Z,93171.75
2023-03-14T04:39:37.777Z,93167.72
2023-03-14T04:42:05.372Z,93156.34
2023-03-14T04:44:31.812Z,93142.75
2023-03-14T04:46:58.274Z,93130.00
2023-03-14T04:49:24.800Z,93137.06
2023-03-14T04:51:51.167Z,93116.94
2023-03-14T04:54:17.573Z,93106.88
2023-03-14T04:56:44.011Z,93092.56
2023-03-14T04:59:10.414Z,93096.31
2023-03-14T05:01:36.876Z,93087.38
2023-03-14T05:04:03.325Z,93089.19
2023-03-14T05:06:29.712Z,93089.63
2023-03-14T05:08:56.142Z,93089.41
2023-03-14T05:11:22.577Z,93078.91
2023-03-14T05:13:49.136Z,93079.13
2023-03-14T05:16:15.551Z,93073.44
2023-03-14T05:18:41.989Z,93066.00
2023-03-14T05:21:08.381Z,93055.44
2023-03-14T05:23:34.783Z,93060.00
2023-03-14T05:26:01.188Z,93068.25
2023-03-14T05:28:27.664Z,93055.53
2023-03-14T05:30:54.037Z,93055.91
2023-03-14T05:33:20.490Z,93053.09
2023-03-14T05:35:46.927Z,93059.34
2023-03-14T05:38:13.324Z,93067.22
2023-03-14T05:40:39.750Z,93061.56
2023-03-14T05:43:06.168Z,93057.59
2023-03-14T05:45:34.594Z,93057.00
2023-03-14T05:48:02.027Z,93058.81
2023-03-14T05:50:28.454Z,93063.13
2023-03-14T05:52:54.860Z,93046.34
2023-03-14T05:55:21.283Z,93044.38
2023-03-14T05:57:47.714Z,93047.81
2023-03-14T06:00:14.106Z,93053.06
2023-03-14T06:02:40.523Z,93050.81
2023-03-14T06:05:06.907Z,93061.13
2023-03-14T06:07:33.396Z,93048.63
2023-03-14T06:09:59.790Z,93062.09
2023-03-14T06:12:26.206Z,93063.13
2023-03-14T06:14:52.619Z,93067.34
2023-03-14T06:17:19.042Z,93075.75
2023-03-14T06:19:45.437Z,93066.03
2023-03-14T06:22:11.827Z,93075.66
2023-03-14T06:24:38.244Z,93077.88
2023-03-14T06:27:04.667Z,93073.78
2023-03-14T06:29:31.058Z,93069.50
2023-03-14T06:31:57.460Z,93098.28
2023-03-14T06:34:23.835Z,93088.78
2023-03-14T06:36:50.230Z,93104.28
2023-03-14T06:39:16.662Z,93079.94
2023-03-14T06:41:43.082Z,93084.53
2023-03-14T06:44:09.638Z,93091.34
2023-03-14T06:46:36.046Z,93098.41
2023-03-14T06:49:02.427Z,93103.84
2023-03-14T06:51:28.862Z,93099.84
2023-03-14T06:53:55.233Z,93103.22
2023-03-14T06:56:21.637Z,93111.00
2023-03-14T06:58:50.256Z,93107.81
2023-03-14T07:01:16.896Z,93116.41
2023-03-14T07:03:43.299Z,93123.03
2023-03-14T07:06:09.730Z,93123.16
2023-03-14T07:08:36.107Z,93133.97
2023-03-14T07:11:02.508Z,93122.88
2023-03-14T07:13:28.899Z,93127.84
2023-03-14T07:15:55.327Z,93142.50
2023-03-14T07:18:21.713Z,93145.69
2023-03-14T07:20:49.837Z,93153.91
2023-03-14T07:23:17.721Z,93146.50
2023-03-14T07:25:44.127Z,93152.81
2023-03-14T07:28:10.491Z,93167.81
2023-03-14T07:30:36.873Z,93193.84
2023-03-14T07:33:03.340Z,93180.38
2023-03-14T07:35:29.765Z,93178.09
2023-03-14T07:37:56.176Z,93179.34
2023-03-14T07:40:22.557Z,93181.78
2023-03-14T07:42:48.952Z,93208.53
2023-03-14T07:45:15.362Z,93188.66
2023-03-14T07:47:41.771Z,93187.31
2023-03-14T07:50:08.169Z,93202.59
2023-03-14T07:52:34.552Z,93179.78
2023-03-14T07:55:00.958Z,93185.94
2023-03-14T07:57:27.387Z,93211.22
2023-03-14T07:59:53.808Z,93207.31
2023-03-14T08:02:20.239Z,93208.84
2023-03-14T08:04:46.691Z,93228.38
2023-03-14T08:07:13.069Z,93218.78
2023-03-14T08:09:39.452Z,93213.44
2023-03-14T08:12:05.820Z,93236.94
2023-03-14T08:14:32.183Z,93227.47
2023-03-14T08:16:58.581Z,93234.69
2023-03-14T08:19:25.010Z,93216.88
2023-03-14T08:21:51.439Z,93231.81
2023-03-14T08:24:17.955Z,93223.41
2023-03-14T08:26:44.363Z,93233.97
2023-03-14T08:29:10.744Z,93238.13
2023-03-14T08:31:37.254Z,93244.72
2023-03-14T08:34:03.724Z,93240.31
2023-03-14T08:36:30.190Z,93242.66
2023-03-14T08:38:56.692Z,93259.25
2023-03-14T08:41:23.131Z,93243.78
2023-03-14T08:43:49.533Z,93243.22
2023-03-14T08:46:15.921Z,93240.63
2023-03-14T08:48:42.300Z,93253.63
2023-03-14T08:51:08.697Z,93251.88
2023-03-14T08:53:35.130Z,93259.91
2023-03-14T08:56:01.526Z,93264.53
2023-03-14T08:58:27.951Z,93262.72
2023-03-14T09:00:54.353Z,93273.56
2023-03-14T09:03:20.819Z,93266.34
2023-03-14T09:05:47.261Z,93266.34
2023-03-14T09:08:13.686Z,93291.31
2023-03-14T09:10:40.093Z,93286.34
2023-03-14T09:13:06.486Z,93283.25
2023-03-14T09:15:32.918Z,93295.47
2023-03-14T09:17:59.323Z,93277.97
2023-03-14T09:20:25.747Z,93283.38
2023-03-14T09:22:52.147Z,93291.28
2023-03-14T09:25:18.591Z,93297.06
2023-03-14T09:27:44.978Z,93300.91
2023-03-14T09:30:11.399Z,93335.22
2023-03-14T09:32:37.834Z,93331.69
2023-03-14T09:35:04.282Z,93338.97
2023-03-14T09:37:30.658Z,93347.47
2023-03-14T09:39:57.083Z,93356.03
2023-03-14T09:42:23.519Z,93355.50
2023-03-14T09:44:49.920Z,93361.88
2023-03-14T09:47:16.378Z,93342.94
2023-03-14T09:49:42.776Z,93348.31
2023-03-14T09:52:09.188Z,93344.41
2023-03-14T09:54:35.571Z,93371.00
2023-03-14T09:57:01.954Z,93368.59
2023-03-14T09:59:28.389Z,93372.06
2023-03-14T10:01:54.815Z,93388.47
2023-03-14T10:04:21.242Z,93400.28
2023-03-14T10:06:47.704Z,93395.97
2023-03-14T10:09:14.134Z,93395.41
2023-03-14T10:11:40.522Z,93402.03
2023-03-14T10:14:06.943Z,93407.81
2023-03-14T10:16:33.317Z,93405.19
2023-03-14T10:18:59.746Z,93402.69
2023-03-14T10:21:26.131Z,93409.69
2023-03-14T10:23:52.511Z,93419.47
2023-03-14T10:26:18.915Z,93421.50
2023-03-14T10:28:45.321Z,93434.91
2023-03-14T10:31:11.870Z,93451.84
2023-03-14T10:33:38.287Z,93451.91
2023-03-14T10:36:04.793Z,93478.28
2023-03-14T10:38:31.225Z,93523.09
2023-03-14T10:40:57.612Z,93558.94
2023-03-14T10:43:24.031Z,93580.75
2023-03-14T10:45:50.438Z,93571.09
2023-03-14T10:48:16.827Z,93575.66
2023-03-14T10:50:43.273Z,93570.03
2023-03-14T10:53:09.689Z,93572.66
2023-03-14T10:55:36.616Z,93566.47
2023-03-14T10:58:03.223Z,93560.13
2023-03-14T11:00:30.811Z,93572.88
2023-03-14T11:02:57.374Z,93578.88
2023-03-14T11:05:23.820Z,93579.47
2023-03-14T11:07:52.420Z,93592.72
2023-03-14T11:10:19.151Z,93591.56
2023-03-14T11:12:46.758Z,93587.72
2023-03-14T11:15:13.371Z,93580.69
2023-03-14T11:17:39.937Z,93570.31
2023-03-14T11:20:06.352Z,93571.44
2023-03-14T11:22:32.735Z,93570.28
2023-03-14T11:24:59.125Z,93587.03
2023-03-14T11:27:25.543Z,93593.09
2023-03-14T11:29:51.950Z,93590.47
2023-03-14T11:32:18.349Z,93572.16
2023-03-14T11:34:44.774Z,93573.66
2023-03-14T11:37:11.156Z,93582.88
2023-03-14T11:39:37.624Z,93612.84
2023-03-14T11:42:05.725Z,93633.50
2023-03-14T11:44:32.245Z,93654.88
2023-03-14T11:47:00.565Z,93653.88
2023-03-14T11:49:27.145Z,93634.72
2023-03-14T11:51:53.539Z,93655.81
2023-03-14T11:54:19.949Z,93610.47
2023-03-14T11:56:46.597Z,93614.91
2023-03-14T11:59:13.000Z,93596.06
2023-03-14T12:01:39.724Z,93603.81
2023-03-14T12:04:07.233Z,93581.81
2023-03-14T12:06:33.676Z,93587.84
2023-03-14T12:09:00.373Z,93581.38
2023-03-14T12:11:28.982Z,93584.22
2023-03-14T12:13:56.548Z,93595.53
2023-03-14T12:16:23.152Z,93602.22
2023-03-14T12:18:49.604Z,93595.75
2023-03-14T12:21:16.021Z,93631.56
2023-03-14T12:23:42.999Z,93628.09
2023-03-14T12:26:09.757Z,93642.56
2023-03-14T12:28:36.261Z,93647.53
2023-03-14T12:31:02.633Z,93667.00
2023-03-14T12:33:29.010Z,93675.38
2023-03-14T12:35:55.478Z,93674.19
2023-03-14T12:38:22.136Z,93685.56
2023-03-14T12:40:48.531Z,93710.81
2023-03-14T12:43:14.926Z,93715.94
2023-03-14T12:45:42.687Z,93727.56
2023-03-14T12:48:10.612Z,93730.19
2023-03-14T12:50:37.016Z,93727.81
2023-03-14T12:53:03.526Z,93735.00
2023-03-14T12:55:29.970Z,93759.22
2023-03-14T12:57:56.371Z,93766.47
2023-03-14T13:00:22.737Z,93771.19
2023-03-14T13:02:49.149Z,93779.91
2023-03-14T13:05:15.574Z,93790.97
2023-03-14T13:07:41.969Z,93792.09
2023-03-14T13:12:39.681Z,93792.84
2023-03-14T13:15:06.078Z,93782.28
2023-03-14T13:17:36.365Z,93792.25
2023-03-14T13:20:03.808Z,93801.88
2023-03-14T13:22:30.249Z,93799.06
2023-03-14T13:24:56.680Z,93807.34
2023-03-14T13:27:23.083Z,93800.22
2023-03-14T13:29:49.753Z,93790.84
2023-03-14T13:32:16.140Z,93787.38
2023-03-14T13:34:42.652Z,93770.28
2023-03-14T13:37:09.106Z,93766.47
2023-03-14T13:39:35.548Z,93764.63
2023-03-14T13:42:01.970Z,93766.94
2023-03-14T13:44:28.407Z,93776.69
2023-03-14T13:46:54.820Z,93771.28
2023-03-14T13:49:21.230Z,93772.59
2023-03-14T13:51:47.629Z,93768.22
2023-03-14T13:54:14.025Z,93770.44
2023-03-14T13:56:41.787Z,93765.00
2023-03-14T13:59:08.216Z,93768.56
2023-03-14T14:01:34.680Z,93776.91
2023-03-14T14:04:01.266Z,93771.72
2023-03-14T14:06:27.730Z,93785.03
2023-03-14T14:08:54.114Z,93787.03
2023-03-14T14:11:20.502Z,93788.13
2023-03-14T14:13:47.010Z,93794.66
2023-03-14T14:16:13.604Z,93787.38
2023-03-14T14:18:40.095Z,93789.09
2023-03-14T14:21:06.501Z,93786.88
2023-03-14T14:23:32.896Z,93798.13
2023-03-14T14:25:59.296Z,93797.53
2023-03-14T14:28:25.724Z,93793.50
2023-03-14T14:30:52.150Z,93806.97
2023-03-14T14:33:18.663Z,93805.91
2023-03-14T14:35:45.068Z,93805.69
2023-03-14T14:38:11.558Z,93803.53
2023-03-14T14:40:37.945Z,93802.41
2023-03-14T14:43:04.344Z,93806.84
2023-03-14T14:45:30.764Z,93807.84
2023-03-14T14:47:57.163Z,93822.31
2023-03-14T14:50:23.564Z,93817.75
2023-03-14T14:52:49.949Z,93823.91
2023-03-14T14:55:16.352Z,93830.78
2023-03-14T14:57:42.740Z,93824.81
2023-03-14T15:00:09.116Z,93834.13
2023-03-14T15:02:35.534Z,93840.72
2023-03-14T15:05:01.969Z,93846.31
2023-03-14T15:07:28.439Z,93846.91
2023-03-14T15:09:54.862Z,93848.72
2023-03-14T15:12:21.287Z,93849.53
2023-03-14T15:14:47.717Z,93837.25
2023-03-14T15:17:14.123Z,93833.31
2023-03-14T15:19:40.547Z,93824.44
2023-03-14T15:22:06.969Z,93837.00
2023-03-14T15:24:33.404Z,93832.94
2023-03-14T15:26:59.803Z,93846.56
2023-03-14T15:29:26.196Z,93833.91
2023-03-14T15:31:52.668Z,93834.44
2023-03-14T15:34:19.175Z,93828.50
2023-03-14T15:36:45.626Z,93820.00
2023-03-14T15:39:12.035Z,93825.94
2023-03-14T15:41:38.441Z,93835.28
2023-03-14T15:44:04.860Z,93848.72
2023-03-14T15:46:31.472Z,93841.50
2023-03-14T15:48:57.894Z,93852.78
2023-03-14T15:51:24.293Z,93846.06
2023-03-14T15:53:50.721Z,93857.06
2023-03-14T15:56:17.125Z,93853.28
2023-03-14T15:58:43.730Z,93844.28
2023-03-14T16:01:10.173Z,93849.84
2023-03-14T16:03:36.587Z,93852.59
2023-03-14T16:06:02.977Z,93845.75
2023-03-14T16:08:29.398Z,93843.94
2023-03-14T16:10:55.806Z,93853.94
2023-03-14T16:13:22.251Z,93852.38
2023-03-14T16:15:48.651Z,93854.66
2023-03-14T16:18:21.532Z,93855.63
2023-03-14T16:20:49.336Z,93870.56
2023-03-14T16:23:17.056Z,93871.13
2023-03-14T16:25:43.447Z,93887.88
2023-03-14T16:28:11.463Z,93884.09
2023-03-14T16:30:38.084Z,93871.16
2023-03-14T16:33:06.218Z,93880.09
2023-03-14T16:35:34.254Z,93885.16
2023-03-14T16:38:00.662Z,93891.97
2023-03-14T16:40:27.095Z,93886.72
2023-03-14T16:43:14.569Z,93888.19
2023-03-14T16:45:40.001Z,93892.59
2023-03-14T16:48:06.474Z,93896.59
2023-03-14T16:50:32.878Z,93901.00
2023-03-14T16:52:59.288Z,93897.63
2023-03-14T16:55:25.696Z,93902.28
2023-03-14T16:57:52.109Z,93916.09
2023-03-14T17:00:18.544Z,93929.47
2023-03-14T17:02:44.927Z,93940.06
2023-03-14T17:05:11.350Z,93953.25
2023-03-14T17:07:37.754Z,93968.72
2023-03-14T17:10:04.167Z,93977.13
2023-03-14T17:12:30.581Z,93992.34
2023-03-14T17:14:56.967Z,94001.22
2023-03-14T17:17:23.377Z,94015.91
2023-03-14T17:19:49.809Z,94014.72
2023-03-14T17:22:23.962Z,94015.41
2023-03-14T17:24:51.078Z,94013.69
2023-03-14T17:27:17.491Z,94001.22
2023-03-14T17:29:44.232Z,93992.25
2023-03-14T17:32:10.677Z,93969.75
2023-03-14T17:34:37.071Z,93962.38
2023-03-14T17:37:03.483Z,93961.59
2023-03-14T17:39:29.997Z,93963.22
2023-03-14T17:41:56.400Z,93972.03
2023-03-14T17:44:22.793Z,93983.13
2023-03-14T17:46:49.288Z,93975.41
2023-03-14T17:49:15.711Z,94009.81
2023-03-14T17:51:42.158Z,94004.28
2023-03-14T17:54:08.587Z,94034.50
2023-03-14T17:56:35.026Z,94044.84
2023-03-14T17:59:01.438Z,94044.69
2023-03-14T18:01:27.996Z,94045.47
2023-03-14T18:03:54.519Z,94054.22
2023-03-14T18:06:20.953Z,94052.97
2023-03-14T18:08:47.454Z,94061.63
2023-03-14T18:11:13.944Z,94060.25
2023-03-14T18:13:40.343Z,94063.84
2023-03-14T18:16:06.728Z,94058.59
2023-03-14T18:18:33.159Z,94070.88
2023-03-14T18:20:59.548Z,94074.28
2023-03-14T18:23:25.949Z,94076.63
2023-03-14T18:25:52.346Z,94081.00
2023-03-14T18:28:18.750Z,94096.75
2023-03-14T18:30:45.134Z,94101.66
2023-03-14T18:33:11.527Z,94098.09
2023-03-14T18:35:38.023Z,94104.81
2023-03-14T18:38:04.510Z,94103.13
2023-03-14T18:40:30.935Z,94116.31
2023-03-14T18:42:57.403Z,94120.31
2023-03-14T18:45:23.783Z,94120.13
2023-03-14T18:47:50.242Z,94126.31
2023-03-14T18:50:16.676Z,94137.72
2023-03-14T18:52:43.095Z,94130.72
2023-03-14T18:55:09.515Z,94142.13
2023-03-14T18:57:35.909Z,94147.72
2023-03-14T19:00:02.325Z,94141.84
2023-03-14T19:02:28.794Z,94148.56
2023-03-14T19:04:55.259Z,94143.06
2023-03-14T19:07:21.667Z,94142.50
2023-03-14T19:09:48.045Z,94139.63
2023-03-14T19:12:14.443Z,94145.81
2023-03-14T19:14:40.965Z,94133.56
2023-03-14T19:17:07.336Z,94138.78
2023-03-14T19:19:33.735Z,94134.41
2023-03-14T19:22:00.159Z,94133.41
2023-03-14T19:24:26.582Z,94149.25
2023-03-14T19:26:54.767Z,94141.78
2023-03-14T19:29:21.258Z,94147.53
2023-03-14T19:31:47.685Z,94157.34
2023-03-14T19:34:14.146Z,94151.81
2023-03-14T19:36:40.536Z,94167.34
2023-03-14T19:39:06.961Z,94167.19
2023-03-14T19:41:33.360Z,94162.25
2023-03-14T19:43:59.775Z,94165.25
2023-03-14T19:46:26.251Z,94173.47
2023-03-14T19:48:52.715Z,94178.97
2023-03-14T19:51:19.111Z,94171.81
2023-03-14T19:53:45.537Z,94173.28
2023-03-14T19:56:11.922Z,94188.13
2023-03-14T19:58:38.330Z,94188.78
2023-03-14T20:01:04.769Z,94186.34
2023-03-14T20:03:31.173Z,94196.47
2023-03-14T20:05:57.599Z,94189.75
2023-03-14T20:08:24.023Z,94179.59
2023-03-14T20:10:50.464Z,94193.63
2023-03-14T20:13:21.713Z,94191.69
2023-03-14T20:15:48.875Z,94190.19
2023-03-14T20:18:15.322Z,94188.31
2023-03-14T20:20:41.786Z,94178.38
2023-03-14T20:23:08.211Z,94180.69
2023-03-14T20:25:34.655Z,94184.56
2023-03-14T20:28:01.070Z,94180.31
2023-03-14T20:30:27.483Z,94180.63
2023-03-14T20:32:53.916Z,94185.44
2023-03-14T20:35:20.526Z,94190.38
2023-03-14T20:37:46.910Z,94195.59
2023-03-14T20:40:13.329Z,94196.44
2023-03-14T20:42:39.767Z,94204.13
2023-03-14T20:45:06.167Z,94201.38
2023-03-14T20:47:32.573Z,94203.00
2023-03-14T20:49:59.021Z,94204.38
2023-03-14T20:52:25.429Z,94199.28
2023-03-14T20:54:51.811Z,94194.59
2023-03-14T20:57:18.230Z,94197.59
2023-03-14T20:59:44.659Z,94196.34
2023-03-14T21:02:11.083Z,94183.50
2023-03-14T21:04:37.587Z,94183.72
2023-03-14T21:07:04.098Z,94179.03
2023-03-14T21:09:30.515Z,94184.09
2023-03-14T21:11:56.902Z,94183.97
2023-03-14T21:14:23.304Z,94185.69
2023-03-14T21:16:49.738Z,94180.44
2023-03-14T21:19:16.147Z,94177.53
2023-03-14T21:21:42.554Z,94181.09
2023-03-14T21:24:08.933Z,94197.03
2023-03-14T21:26:35.358Z,94200.84
2023-03-14T21:29:01.806Z,94210.16
2023-03-14T21:31:28.441Z,94221.31
2023-03-14T21:33:54.855Z,94260.69
2023-03-14T21:36:21.264Z,94269.06
2023-03-14T21:38:47.662Z,94269.53
2023-03-14T21:41:14.084Z,94267.66
2023-03-14T21:43:40.803Z,94265.06
2023-03-14T21:46:07.183Z,94251.09
2023-03-14T21:48:33.604Z,94244.63
2023-03-14T21:50:59.991Z,94255.47
2023-03-14T21:53:26.415Z,94253.13
2023-03-14T21:55:52.815Z,94249.59
2023-03-14T21:58:19.235Z,94241.22
2023-03-14T22:00:45.697Z,94236.41
2023-03-14T22:03:13.617Z,94233.13
2023-03-14T22:05:40.274Z,94230.94
2023-03-14T22:08:06.817Z,94221.03
2023-03-14T22:10:33.234Z,94220.22
2023-03-14T22:12:59.612Z,94237.38
2023-03-14T22:15:26.031Z,94239.03
2023-03-14T22:17:52.420Z,94250.44
2023-03-14T22:20:18.807Z,94250.16
2023-03-14T22:22:45.215Z,94252.91
2023-03-14T22:25:11.609Z,94253.03
2023-03-14T22:27:38.080Z,94248.66
2023-03-14T22:30:04.506Z,94240.94
2023-03-14T22:32:31.859Z,94230.50
2023-03-14T22:34:58.273Z,94235.72
2023-03-14T22:37:24.674Z,94242.47
2023-03-14T22:39:51.089Z,94252.09
2023-03-14T22:42:17.481Z,94258.13
2023-03-14T22:44:43.975Z,94252.38
2023-03-14T22:47:10.419Z,94243.16
2023-03-14T22:49:36.812Z,94244.81
2023-03-14T22:52:03.210Z,94251.41
2023-03-14T22:54:29.580Z,94238.34
2023-03-14T22:56:56.838Z,94247.41
2023-03-14T22:59:23.307Z,94242.31
2023-03-14T23:01:49.963Z,94243.44
2023-03-14T23:04:16.384Z,94255.25
2023-03-14T23:06:43.169Z,94257.03
2023-03-14T23:09:10.744Z,94257.03
2023-03-14T23:11:39.338Z,94267.03
2023-03-14T23:14:05.735Z,94256.34
2023-03-14T23:16:39.873Z,94265.56
2023-03-14T23:19:06.696Z,94266.63
2023-03-14T23:21:33.063Z,94271.31
2023-03-14T23:23:59.439Z,94262.66
2023-03-14T23:26:25.825Z,94267.63
2023-03-14T23:28:52.208Z,94253.16
2023-03-14T23:31:18.637Z,94246.19
2023-03-14T23:33:45.034Z,94262.13
2023-03-14T23:36:11.447Z,94272.22
2023-03-14T23:38:37.836Z,94265.91
2023-03-14T23:41:04.250Z,94287.19
2023-03-14T23:43:30.622Z,94288.56
2023-03-14T23:45:57.090Z,94273.75
2023-03-14T23:48:23.511Z,94284.72
2023-03-14T23:50:49.893Z,94287.19
2023-03-14T23:53:16.287Z,94308.66
2023-03-14T23:55:42.722Z,94302.75
2023-03-14T23:58:09.101Z,94316.19
